Terminal Aerodrome Forecast
Issued by NWS

Home | Current Version | Previous Version | Text Only | Print | Product List | Glossary On
Versions: 1 2 3 4 5 6 7 8 9 10 11 12 13 14
742
FTUS44 KEPZ 282332
TAFTCS
TAF
KTCS 282332Z 2900/2924 21010KT P6SM FEW070 SCT150 BKN200
     FM290200 35005KT P6SM SCT060 BKN100 BKN200
     FM291200 VRB04KT P6SM BKN050 BKN100
     FM291800 15010KT P6SM VCSH SCT050 BKN100=

USA.gov is the U.S. government's official web portal to all federal, state and local government web resources and services.